Time,TemperatureF,DewpointF,PressureIn,WindDirection,WindDirectionDegrees,WindSpeedMPH,WindSpeedGustMPH,Humidity,HourlyPrecipIn,Conditions,Clouds,dailyrainin,SoftwareType,DateUTC
2013-03-14 00:11:00,30.4,17.8,29.89,NE,45,2.7,-999.0,59,-99.99,,,0.00,Acu-Link.com,2013-03-14 04:11:00,
2013-03-14 00:26:00,30.0,16.2,29.89,NNW,337,4.2,-999.0,56,-99.99,,,0.00,Acu-Link.com,2013-03-14 04:26:00,
2013-03-14 00:41:00,29.8,15.6,29.89,West,270,6.8,-999.0,55,-99.99,,,0.00,Acu-Link.com,2013-03-14 04:41:00,
2013-03-14 00:56:00,29.5,14.9,29.89,ESE,112,2.7,-999.0,54,-99.99,,,0.00,Acu-Link.com,2013-03-14 04:56:00,
2013-03-14 01:11:00,29.3,15.6,29.88,WNW,292,1.7,-999.0,56,-99.99,,,0.00,Acu-Link.com,2013-03-14 05:11:00,
2013-03-14 01:26:00,29.1,15.4,29.89,West,270,3.7,-999.0,56,-99.99,,,0.00,Acu-Link.com,2013-03-14 05:26:00,
2013-03-14 01:42:00,29.3,15.2,29.89,WSW,247,2.7,-999.0,55,-99.99,,,0.00,Acu-Link.com,2013-03-14 05:42:00,
2013-03-14 01:57:00,29.3,15.2,29.89,West,270,2.7,-999.0,55,-99.99,,,0.00,Acu-Link.com,2013-03-14 05:57:00,
2013-03-14 02:12:00,29.3,15.2,29.88,West,270,2.2,-999.0,55,-99.99,,,0.00,Acu-Link.com,2013-03-14 06:12:00,
2013-03-14 02:27:00,29.1,15.4,29.88,West,270,4.2,-999.0,56,-99.99,,,0.00,Acu-Link.com,2013-03-14 06:27:00,
2013-03-14 02:43:00,29.3,15.2,29.88,ENE,67,7.3,-999.0,55,-99.99,,,0.00,Acu-Link.com,2013-03-14 06:43:00,
2013-03-14 02:58:00,29.3,17.5,29.88,West,270,3.7,-999.0,61,-99.99,,,0.00,Acu-Link.com,2013-03-14 06:58:00,
2013-03-14 03:13:00,28.8,18.9,29.88,West,270,2.7,-999.0,66,-99.99,,,0.00,Acu-Link.com,2013-03-14 07:13:00,
2013-03-14 03:28:00,28.4,18.9,29.88,West,270,1.7,-999.0,67,-99.99,,,0.00,Acu-Link.com,2013-03-14 07:28:00,
2013-03-14 03:59:00,28.4,18.9,29.87,West,270,3.2,-999.0,67,-99.99,,,0.00,Acu-Link.com,2013-03-14 07:59:00,
2013-03-14 04:14:00,28.4,18.5,29.87,West,270,4.7,-999.0,66,-99.99,,,0.00,Acu-Link.com,2013-03-14 08:14:00,
2013-03-14 04:29:00,28.6,17.6,29.87,West,270,1.1,-999.0,63,-99.99,,,0.00,Acu-Link.com,2013-03-14 08:29:00,
2013-03-14 04:44:00,28.9,15.6,29.87,NNW,337,3.7,-999.0,57,-99.99,,,0.00,Acu-Link.com,2013-03-14 08:44:00,
2013-03-14 04:59:00,29.1,15.4,29.87,SW,225,2.2,-999.0,56,-99.99,,,0.00,Acu-Link.com,2013-03-14 08:59:00,
2013-03-14 05:14:00,29.1,15.0,29.88,West,270,2.2,-999.0,55,-99.99,,,0.00,Acu-Link.com,2013-03-14 09:14:00,
2013-03-14 05:30:00,29.1,15.4,29.88,West,270,3.7,-999.0,56,-99.99,,,0.00,Acu-Link.com,2013-03-14 09:30:00,
2013-03-14 05:45:00,29.1,15.4,29.89,West,270,4.2,-999.0,56,-99.99,,,0.00,Acu-Link.com,2013-03-14 09:45:00,
2013-03-14 06:00:00,28.6,18.0,29.90,North,0,4.7,-999.0,64,-99.99,,,0.00,Acu-Link.com,2013-03-14 10:00:00,
2013-03-14 06:16:00,27.1,19.3,29.91,NNW,337,1.7,-999.0,72,-99.99,,,0.00,Acu-Link.com,2013-03-14 10:16:00,
2013-03-14 06:46:00,27.0,17.5,29.90,West,270,2.7,-999.0,67,-99.99,,,0.00,Acu-Link.com,2013-03-14 10:46:00,
2013-03-14 07:02:00,27.3,17.8,29.91,NNW,337,2.2,-999.0,67,-99.99,,,0.00,Acu-Link.com,2013-03-14 11:02:00,
2013-03-14 07:17:00,27.7,16.8,29.92,NW,315,2.7,-999.0,63,-99.99,,,0.00,Acu-Link.com,2013-03-14 11:17:00,
2013-03-14 07:32:00,27.9,17.0,29.92,NNW,337,2.7,-999.0,63,-99.99,,,0.00,Acu-Link.com,2013-03-14 11:32:00,
2013-03-14 07:47:00,28.0,17.4,29.93,West,270,2.2,-999.0,64,-99.99,,,0.00,Acu-Link.com,2013-03-14 11:47:00,
2013-03-14 08:03:00,28.2,16.9,29.93,NW,315,6.8,-999.0,62,-99.99,,,0.00,Acu-Link.com,2013-03-14 12:03:00,
2013-03-14 08:18:00,28.2,16.9,29.93,South,180,3.7,-999.0,62,-99.99,,,0.00,Acu-Link.com,2013-03-14 12:18:00,
2013-03-14 08:33:00,28.6,16.5,29.94,WSW,247,4.7,-999.0,60,-99.99,,,0.00,Acu-Link.com,2013-03-14 12:33:00,
2013-03-14 08:48:00,28.9,16.8,29.94,NNW,337,8.9,-999.0,60,-99.99,,,0.00,Acu-Link.com,2013-03-14 12:48:00,
2013-03-14 09:04:00,28.9,18.3,29.95,WNW,292,4.7,-999.0,64,-99.99,,,0.00,Acu-Link.com,2013-03-14 13:04:00,
2013-03-14 09:19:00,29.7,17.9,29.95,WNW,292,5.3,-999.0,61,-99.99,,,0.00,Acu-Link.com,2013-03-14 13:19:00,
2013-03-14 09:34:00,29.8,18.0,29.94,West,270,4.2,-999.0,61,-99.99,,,0.00,Acu-Link.com,2013-03-14 13:34:00,
2013-03-14 09:49:00,29.8,18.0,29.94,NNW,337,7.3,-999.0,61,-99.99,,,0.00,Acu-Link.com,2013-03-14 13:49:00,
2013-03-14 10:04:00,31.1,18.1,29.94,West,270,6.3,-999.0,58,-99.99,,,0.00,Acu-Link.com,2013-03-14 14:04:00,
2013-03-14 10:19:00,31.8,16.6,29.93,WSW,247,6.3,-999.0,53,-99.99,,,0.00,Acu-Link.com,2013-03-14 14:19:00,
2013-03-14 10:34:00,32.2,16.1,29.93,West,270,7.3,-999.0,51,-99.99,,,0.00,Acu-Link.com,2013-03-14 14:34:00,
2013-03-14 10:49:00,33.1,14.6,29.93,SE,135,6.8,-999.0,46,-99.99,,,0.00,Acu-Link.com,2013-03-14 14:49:00,
2013-03-14 11:05:00,34.7,14.5,29.93,West,270,7.8,-999.0,43,-99.99,,,0.00,Acu-Link.com,2013-03-14 15:05:00,
2013-03-14 11:20:00,34.9,14.2,29.92,NNW,337,13.0,-999.0,42,-99.99,,,0.00,Acu-Link.com,2013-03-14 15:20:00,
2013-03-14 11:35:00,34.9,14.7,29.91,WSW,247,7.8,-999.0,43,-99.99,,,0.00,Acu-Link.com,2013-03-14 15:35:00,
2013-03-14 12:21:00,35.8,14.4,29.90,West,270,4.7,-999.0,41,-99.99,,,0.00,Acu-Link.com,2013-03-14 16:21:00,
2013-03-14 12:52:00,37.0,15.0,29.89,WNW,292,6.3,-999.0,40,-99.99,,,0.00,Acu-Link.com,2013-03-14 16:52:00,
2013-03-14 13:07:00,37.8,15.7,29.89,West,270,6.8,-999.0,40,-99.99,,,0.00,Acu-Link.com,2013-03-14 17:07:00,
2013-03-14 13:22:00,37.4,14.7,29.89,North,0,6.8,-999.0,39,-99.99,,,0.00,Acu-Link.com,2013-03-14 17:22:00,
2013-03-14 13:37:00,38.7,15.3,29.89,West,270,5.3,-999.0,38,-99.99,,,0.00,Acu-Link.com,2013-03-14 17:37:00,
2013-03-14 13:52:00,37.9,14.0,29.89,West,270,5.3,-999.0,37,-99.99,,,0.00,Acu-Link.com,2013-03-14 17:52:00,
2013-03-14 14:07:00,38.3,13.1,29.89,NW,315,7.8,-999.0,35,-99.99,,,0.00,Acu-Link.com,2013-03-14 18:07:00,
2013-03-14 14:37:00,39.6,13.6,29.88,West,270,10.4,-999.0,34,-99.99,,,0.00,Acu-Link.com,2013-03-14 18:37:00,
2013-03-14 14:53:00,39.9,13.2,29.87,North,0,6.8,-999.0,33,-99.99,,,0.00,Acu-Link.com,2013-03-14 18:53:00,
2013-03-14 15:08:00,39.2,13.2,29.87,NNW,337,5.8,-999.0,34,-99.99,,,0.00,Acu-Link.com,2013-03-14 19:08:00,
2013-03-14 15:23:00,39.7,13.0,29.87,NW,315,7.3,-999.0,33,-99.99,,,0.00,Acu-Link.com,2013-03-14 19:23:00,
2013-03-14 15:38:00,39.9,13.2,29.87,NNW,337,6.3,-999.0,33,-99.99,,,0.00,Acu-Link.com,2013-03-14 19:38:00,
2013-03-14 15:53:00,39.9,12.5,29.88,West,270,7.3,-999.0,32,-99.99,,,0.00,Acu-Link.com,2013-03-14 19:53:00,
2013-03-14 16:09:00,39.4,12.0,29.86,NNW,337,7.8,-999.0,32,-99.99,,,0.00,Acu-Link.com,2013-03-14 20:09:00,
2013-03-14 16:24:00,40.5,13.0,29.86,West,270,3.7,-999.0,32,-99.99,,,0.00,Acu-Link.com,2013-03-14 20:24:00,
2013-03-14 16:39:00,40.5,14.4,29.86,West,270,3.7,-999.0,34,-99.99,,,0.00,Acu-Link.com,2013-03-14 20:39:00,
2013-03-14 16:54:00,40.1,13.3,29.87,West,270,5.8,-999.0,33,-99.99,,,0.00,Acu-Link.com,2013-03-14 20:54:00,
2013-03-14 17:10:00,40.3,11.4,29.87,NW,315,7.8,-999.0,30,-99.99,,,0.00,Acu-Link.com,2013-03-14 21:10:00,
2013-03-14 17:25:00,40.6,12.4,29.87,ENE,67,5.3,-999.0,31,-99.99,,,0.00,Acu-Link.com,2013-03-14 21:25:00,
2013-03-14 17:40:00,40.6,11.6,29.88,WSW,247,4.2,-999.0,30,-99.99,,,0.00,Acu-Link.com,2013-03-14 21:40:00,
2013-03-14 17:55:00,39.4,12.0,29.87,WNW,292,4.2,-999.0,32,-99.99,,,0.00,Acu-Link.com,2013-03-14 21:55:00,
2013-03-14 18:26:00,37.6,11.1,29.88,NW,315,4.7,-999.0,33,-99.99,,,0.00,Acu-Link.com,2013-03-14 22:26:00,
2013-03-14 18:41:00,36.9,11.2,29.89,WNW,292,4.2,-999.0,34,-99.99,,,0.00,Acu-Link.com,2013-03-14 22:41:00,
2013-03-14 18:56:00,35.4,11.1,29.89,West,270,6.8,-999.0,36,-99.99,,,0.00,Acu-Link.com,2013-03-14 22:56:00,
2013-03-14 19:12:00,34.5,10.9,29.89,NW,315,3.2,-999.0,37,-99.99,,,0.00,Acu-Link.com,2013-03-14 23:12:00,
2013-03-14 19:27:00,33.8,11.5,29.90,NW,315,3.7,-999.0,39,-99.99,,,0.00,Acu-Link.com,2013-03-14 23:27:00,
2013-03-14 19:42:00,33.3,12.2,29.91,West,270,2.7,-999.0,41,-99.99,,,0.00,Acu-Link.com,2013-03-14 23:42:00,
2013-03-14 19:58:00,33.1,12.0,29.92,WNW,292,3.7,-999.0,41,-99.99,,,0.00,Acu-Link.com,2013-03-14 23:58:00,
2013-03-14 20:13:00,33.1,12.5,29.91,NW,315,4.7,-999.0,42,-99.99,,,0.00,Acu-Link.com,2013-03-15 00:13:00,
2013-03-14 20:29:00,32.5,12.5,29.91,WSW,247,5.3,-999.0,43,-99.99,,,0.00,Acu-Link.com,2013-03-15 00:29:00,
2013-03-14 20:44:00,32.4,12.4,29.92,NNW,337,6.8,-999.0,43,-99.99,,,0.00,Acu-Link.com,2013-03-15 00:44:00,
2013-03-14 20:59:00,32.0,12.6,29.93,WSW,247,4.2,-999.0,44,-99.99,,,0.00,Acu-Link.com,2013-03-15 00:59:00,
2013-03-14 21:14:00,31.5,12.1,29.94,West,270,4.7,-999.0,44,-99.99,,,0.00,Acu-Link.com,2013-03-15 01:14:00,
2013-03-14 21:29:00,31.1,12.3,29.94,West,270,6.8,-999.0,45,-99.99,,,0.00,Acu-Link.com,2013-03-15 01:29:00,
2013-03-14 21:44:00,30.7,12.9,29.95,West,270,3.2,-999.0,47,-99.99,,,0.00,Acu-Link.com,2013-03-15 01:44:00,
2013-03-14 22:00:00,30.2,12.4,29.95,NNW,337,3.7,-999.0,47,-99.99,,,0.00,Acu-Link.com,2013-03-15 02:00:00,
2013-03-14 22:15:00,30.4,13.1,29.95,NW,315,3.2,-999.0,48,-99.99,,,0.00,Acu-Link.com,2013-03-15 02:15:00,
2013-03-14 22:30:00,30.4,13.6,29.95,West,270,3.7,-999.0,49,-99.99,,,0.00,Acu-Link.com,2013-03-15 02:30:00,
2013-03-14 22:45:00,29.8,13.5,29.95,WNW,292,2.2,-999.0,50,-99.99,,,0.00,Acu-Link.com,2013-03-15 02:45:00,
2013-03-14 23:00:00,29.3,13.4,29.96,WNW,292,2.7,-999.0,51,-99.99,,,0.00,Acu-Link.com,2013-03-15 03:00:00,
2013-03-14 23:16:00,29.1,13.7,29.96,North,0,1.1,-999.0,52,-99.99,,,0.00,Acu-Link.com,2013-03-15 03:16:00,
2013-03-14 23:31:00,29.1,13.7,29.97,West,270,3.7,-999.0,52,-99.99,,,0.00,Acu-Link.com,2013-03-15 03:31:00,
2013-03-14 23:46:00,28.9,13.9,29.97,WSW,247,4.2,-999.0,53,-99.99,,,0.00,Acu-Link.com,2013-03-15 03:46:00,